Time;durP1;ratioP1;P1;durP2;ratioP2;P2;SDS_P1;SDS_P2;PMS_P1;PMS_P2;Temp;Humidity;BMP_temperature;BMP_pressure;BME280_temperature;BME280_humidity;BME280_pressure;Samples;Min_cycle;Max_cycle;Signal;HPM_P1;HPM_P2
2021/11/05 00:02:12;;;;;;;6.63;4.90;;;;;;;3.80;78.96;96153.53;5108168;28;20460;-68
2021/11/05 00:04:38;;;;;;;30.77;6.70;;;;;;;3.80;78.92;96155.44;5108275;28;20120;-69
2021/11/05 00:07:06;;;;;;;6.75;5.03;;;;;;;3.83;79.06;96158.38;5107988;27;20058;-69
2021/11/05 00:09:32;;;;;;;28.35;6.15;;;;;;;3.84;78.71;96157.28;5108335;28;20078;-69
2021/11/05 00:11:59;;;;;;;20.88;6.60;;;;;;;3.86;78.72;96155.13;5108633;28;20047;-69
2021/11/05 00:14:25;;;;;;;21.35;5.15;;;;;;;3.85;78.79;96161.59;5108312;28;20055;-68
2021/11/05 00:16:53;;;;;;;8.68;5.45;;;;;;;3.88;78.52;96161.03;5107708;28;20414;-69
2021/11/05 00:19:20;;;;;;;38.33;6.60;;;;;;;3.86;78.45;96163.22;5108170;27;20051;-69
2021/11/05 00:21:46;;;;;;;14.35;5.47;;;;;;;3.89;78.54;96162.66;5107336;28;20043;-68
2021/11/05 00:24:13;;;;;;;20.70;5.63;;;;;;;3.84;78.59;96159.19;5093041;28;20051;-69
2021/11/05 00:26:39;;;;;;;48.67;6.25;;;;;;;3.85;78.58;96158.88;5087333;28;20055;-68
2021/11/05 00:29:06;;;;;;;12.80;5.38;;;;;;;3.84;78.74;96162.69;5087064;28;20040;-68
2021/11/05 00:31:32;;;;;;;5.35;4.00;;;;;;;3.83;79.04;96163.75;5087250;28;20081;-69
2021/11/05 00:34:00;;;;;;;23.90;6.07;;;;;;;3.84;78.86;96170.75;5087330;28;20048;-69
2021/11/05 00:36:26;;;;;;;13.45;5.20;;;;;;;3.84;78.61;96176.16;5087255;28;20064;-68
2021/11/05 00:38:53;;;;;;;16.95;5.68;;;;;;;3.83;78.79;96173.75;5087009;28;20059;-68
2021/11/05 00:41:19;;;;;;;22.02;5.60;;;;;;;3.83;78.63;96171.84;5087411;28;20052;-68
2021/11/05 00:43:46;;;;;;;40.38;6.68;;;;;;;3.81;78.54;96174.03;5086659;28;20048;-68
2021/11/05 00:46:12;;;;;;;25.33;8.93;;;;;;;3.77;78.78;96172.16;5087545;28;20422;-68
2021/11/05 00:48:39;;;;;;;16.42;6.70;;;;;;;3.77;78.94;96175.66;5087022;28;20093;-68
2021/11/05 00:51:07;;;;;;;7.53;4.90;;;;;;;3.77;78.98;96178.34;5087168;28;20079;-68
2021/11/05 00:53:34;;;;;;;9.05;5.43;;;;;;;3.76;78.81;96173.22;5090632;28;20060;-68
2021/11/05 00:56:00;;;;;;;22.85;6.55;;;;;;;3.78;79.20;96182.66;5107818;28;20083;-69
2021/11/05 00:58:27;;;;;;;12.27;4.70;;;;;;;3.76;78.66;96184.84;5107404;28;20065;-68
2021/11/05 01:00:53;;;;;;;43.47;7.28;;;;;;;3.77;79.08;96175.66;5107023;28;20051;-68
2021/11/05 01:03:20;;;;;;;10.32;5.70;;;;;;;3.81;78.75;96174.03;5106948;28;20047;-68
2021/11/05 01:05:46;;;;;;;37.05;7.00;;;;;;;3.83;78.72;96179.94;5106431;28;20392;-68
2021/11/05 01:08:14;;;;;;;37.33;6.18;;;;;;;3.87;78.49;96178.28;5107413;28;20054;-68
2021/11/05 01:10:40;;;;;;;35.83;6.35;;;;;;;3.90;78.42;96180.41;5106800;28;20043;-68
2021/11/05 01:13:08;;;;;;;51.33;6.43;;;;;;;3.93;78.54;96181.75;5107341;28;20051;-68
2021/11/05 01:15:35;;;;;;;27.60;6.32;;;;;;;3.95;78.47;96184.16;5106926;28;20062;-68
2021/11/05 01:18:02;;;;;;;7.95;4.63;;;;;;;3.99;78.17;96180.63;5107099;28;20059;-69
2021/11/05 01:20:28;;;;;;;7.13;4.95;;;;;;;4.03;78.08;96179.00;5107104;28;20048;-68
2021/11/05 01:22:55;;;;;;;34.80;7.63;;;;;;;4.03;77.93;96192.47;5105386;28;20047;-69
2021/11/05 01:25:23;;;;;;;20.10;5.63;;;;;;;4.05;77.63;96184.09;5086604;28;20055;-68
2021/11/05 01:27:50;;;;;;;35.72;5.82;;;;;;;4.05;77.93;96186.78;5086410;28;20415;-68
2021/11/05 01:30:17;;;;;;;6.22;4.20;;;;;;;4.05;77.46;96184.09;5087029;28;20052;-68
2021/11/05 01:32:46;;;;;;;7.70;4.85;;;;;;;4.04;77.57;96193.25;5086331;28;20139;-68
2021/11/05 01:35:13;;;;;;;6.55;4.72;;;;;;;4.06;77.67;96191.09;5086878;28;20060;-69
2021/11/05 01:37:40;;;;;;;15.20;4.82;;;;;;;4.05;77.70;96182.19;5086685;28;20059;-68
2021/11/05 01:40:07;;;;;;;11.70;5.45;;;;;;;4.07;77.50;96185.44;5086652;28;20059;-69
2021/11/05 01:42:35;;;;;;;8.15;5.30;;;;;;;4.12;76.96;96189.97;5086561;28;20052;-69
2021/11/05 01:45:03;;;;;;;9.23;4.80;;;;;;;4.15;76.66;96186.72;5086968;28;20169;-69
2021/11/05 01:47:29;;;;;;;7.70;4.97;;;;;;;4.17;76.91;96195.31;5087008;28;20566;-69
2021/11/05 01:49:56;;;;;;;30.20;10.10;;;;;;;4.16;77.18;96193.72;5086471;28;20563;-69
2021/11/05 01:52:23;;;;;;;15.68;4.75;;;;;;;4.19;76.44;96199.34;5087038;28;20159;-69
2021/11/05 01:54:50;;;;;;;6.80;4.22;;;;;;;4.22;76.19;96192.56;5104537;28;20055;-68
2021/11/05 01:57:17;;;;;;;8.18;4.95;;;;;;;4.21;76.18;96196.38;5110979;27;20051;-69
2021/11/05 01:59:50;;;;;;;6.15;4.20;;;;;;;4.22;75.97;96214.13;5110406;27;20513;-68
2021/11/05 02:02:17;;;;;;;10.57;5.40;;;;;;;4.23;76.08;96212.25;5110549;28;20142;-68
2021/11/05 02:04:44;;;;;;;10.23;5.40;;;;;;;4.23;75.94;96213.09;5110632;27;20047;-69
2021/11/05 02:07:12;;;;;;;6.85;5.13;;;;;;;4.20;75.84;96210.94;5109931;28;20054;-69
2021/11/05 02:09:40;;;;;;;21.75;6.43;;;;;;;4.21;75.98;96212.53;5110817;28;20563;-68
2021/11/05 02:12:09;;;;;;;36.17;5.85;;;;;;;4.18;75.67;96218.50;5109634;28;20048;-68
2021/11/05 02:14:35;;;;;;;38.55;6.28;;;;;;;4.15;76.33;96219.06;5110942;28;20051;-69
2021/11/05 02:17:05;;;;;;;57.85;6.70;;;;;;;4.11;75.99;96216.09;5109530;28;20585;-69
2021/11/05 02:19:33;;;;;;;43.10;6.78;;;;;;;4.08;76.29;96205.91;5111132;28;20059;-68
2021/11/05 02:22:02;;;;;;;10.20;5.60;;;;;;;4.00;76.50;96211.06;5109728;27;20044;-68
2021/11/05 02:24:30;;;;;;;13.60;7.03;;;;;;;3.95;76.80;96216.50;5097086;28;20048;-69
2021/11/05 02:26:58;;;;;;;18.98;6.05;;;;;;;3.92;76.79;96215.97;5089759;28;20695;-69
2021/11/05 02:29:25;;;;;;;8.80;5.03;;;;;;;3.89;76.90;96213.81;5089562;28;20059;-68
2021/11/05 02:31:52;;;;;;;40.88;7.07;;;;;;;3.82;77.23;96221.41;5089891;28;20052;-69
2021/11/05 02:34:19;;;;;;;35.75;8.07;;;;;;;3.82;77.21;96226.00;5089210;28;20052;-68
2021/11/05 02:36:46;;;;;;;53.55;9.07;;;;;;;3.79;77.45;96226.53;5090220;28;20105;-69
2021/11/05 02:39:15;;;;;;;73.50;9.10;;;;;;;3.74;77.67;96230.06;5088758;28;20048;-69
2021/11/05 02:41:43;;;;;;;76.10;9.30;;;;;;;3.70;77.79;96228.19;5090233;28;20059;-69
2021/11/05 02:44:10;;;;;;;15.75;7.95;;;;;;;3.66;77.97;96233.34;5089309;28;20097;-69
2021/11/05 02:46:37;;;;;;;30.77;12.30;;;;;;;3.63;77.99;96239.28;5089892;28;20082;-68
2021/11/05 02:49:05;;;;;;;66.63;19.88;;;;;;;3.57;78.28;96237.69;5088994;28;20055;-69
2021/11/05 02:51:34;;;;;;;55.17;18.00;;;;;;;3.50;78.17;96246.06;5089498;28;20093;-69
2021/11/05 02:54:01;;;;;;;53.15;11.25;;;;;;;3.45;78.32;96240.72;5089480;28;20044;-68
2021/11/05 02:56:29;;;;;;;93.80;18.15;;;;;;;3.37;78.14;96235.88;5089127;28;20048;-69
2021/11/05 02:58:55;;;;;;;49.47;13.73;;;;;;;3.32;78.20;96244.78;5090079;28;20048;-68
2021/11/05 03:01:22;;;;;;;25.50;12.73;;;;;;;3.23;78.45;96245.63;5088383;28;20055;-68
2021/11/05 03:03:49;;;;;;;34.95;15.90;;;;;;;3.18;78.81;96246.44;5089724;28;20052;-69
2021/11/05 03:06:16;;;;;;;45.60;18.90;;;;;;;3.12;79.20;96242.94;5088061;28;20063;-69
2021/11/05 03:08:43;;;;;;;68.63;27.17;;;;;;;3.09;79.39;96251.59;5089918;28;20395;-68
2021/11/05 03:11:12;;;;;;;70.03;29.25;;;;;;;3.06;79.44;96254.00;5088399;28;20511;-69
2021/11/05 03:13:40;;;;;;;48.67;21.00;;;;;;;3.02;79.55;96250.25;5089035;28;20083;-69
2021/11/05 03:16:07;;;;;;;20.65;9.75;;;;;;;2.95;79.76;96255.91;5088711;28;20051;-69
2021/11/05 03:18:38;;;;;;;28.60;10.40;;;;;;;2.91;79.91;96262.09;5088657;28;20469;-69
2021/11/05 03:21:04;;;;;;;22.23;8.50;;;;;;;2.86;80.14;96263.72;5089283;28;20055;-68
2021/11/05 03:23:31;;;;;;;36.00;10.95;;;;;;;2.84;80.26;96265.88;5091443;28;20521;-69
2021/11/05 03:25:57;;;;;;;33.33;12.65;;;;;;;2.80;80.10;96264.00;5109746;28;20055;-69
2021/11/05 03:28:24;;;;;;;35.78;11.18;;;;;;;2.75;80.23;96270.19;5107913;28;20055;-68
2021/11/05 03:30:52;;;;;;;31.77;11.10;;;;;;;2.70;80.31;96270.19;5109699;28;20062;-69
2021/11/05 03:33:18;;;;;;;26.55;10.73;;;;;;;2.68;80.48;96276.91;5108140;28;20629;-68
2021/11/05 03:35:45;;;;;;;38.10;13.02;;;;;;;2.61;80.27;96278.00;5109193;28;20051;-68
2021/11/05 03:38:11;;;;;;;42.35;14.82;;;;;;;2.57;80.56;96278.78;5108612;28;20056;-68
2021/11/05 03:40:38;;;;;;;47.40;16.27;;;;;;;2.53;80.98;96285.78;5108836;28;20052;-69
2021/11/05 03:43:04;;;;;;;41.08;14.43;;;;;;;2.48;80.89;96283.09;5108282;28;20054;-69
2021/11/05 03:45:31;;;;;;;48.20;14.75;;;;;;;2.45;81.01;96295.16;5108255;28;20054;-68
2021/11/05 03:47:59;;;;;;;39.58;13.98;;;;;;;2.42;81.02;96292.22;5109111;28;20505;-68
2021/11/05 03:50:26;;;;;;;28.35;10.85;;;;;;;2.40;81.05;96291.66;5107816;27;20158;-68
2021/11/05 03:52:52;;;;;;;28.38;10.38;;;;;;;2.40;81.35;96299.72;5109103;28;20055;-68
2021/11/05 03:55:19;;;;;;;23.88;9.85;;;;;;;2.37;81.29;96303.78;5085526;28;20487;-68
2021/11/05 03:57:45;;;;;;;36.60;11.50;;;;;;;2.36;81.46;96304.84;5088498;28;20494;-68
2021/11/05 04:00:13;;;;;;;27.52;9.30;;;;;;;2.37;81.45;96308.34;5087255;28;20044;-69
2021/11/05 04:02:40;;;;;;;30.38;9.85;;;;;;;2.35;81.46;96312.09;5087858;28;20055;-68
2021/11/05 04:05:08;;;;;;;22.25;8.02;;;;;;;2.40;81.27;96313.16;5087830;28;20063;-69
2021/11/05 04:07:34;;;;;;;26.17;8.07;;;;;;;2.39;80.91;96316.94;5087452;28;20436;-69
2021/11/05 04:10:01;;;;;;;26.88;7.93;;;;;;;2.33;80.79;96322.28;5088399;28;20572;-68
2021/11/05 04:12:28;;;;;;;23.70;8.40;;;;;;;2.28;80.89;96318.78;5086932;28;20059;-68
2021/11/05 04:14:54;;;;;;;26.35;9.45;;;;;;;2.23;81.07;96319.59;5088029;28;20052;-68
2021/11/05 04:17:21;;;;;;;24.92;9.13;;;;;;;2.23;81.09;96333.03;5086694;28;20055;-68
2021/11/05 04:19:47;;;;;;;31.58;10.70;;;;;;;2.20;81.30;96328.19;5088153;28;20055;-68
2021/11/05 04:22:15;;;;;;;25.60;9.93;;;;;;;2.19;81.15;96329.25;5086836;28;20051;-68
2021/11/05 04:24:42;;;;;;;34.20;10.65;;;;;;;2.20;80.68;96336.25;5101140;28;20054;-68
2021/11/05 04:27:08;;;;;;;25.48;9.27;;;;;;;2.15;80.72;96338.94;5107569;27;20054;-68
2021/11/05 04:29:36;;;;;;;19.48;7.97;;;;;;;2.13;81.04;96351.00;5107587;28;20136;-69
2021/11/05 04:32:03;;;;;;;20.38;7.80;;;;;;;2.14;81.33;96347.22;5107707;28;20051;-69
2021/11/05 04:34:29;;;;;;;26.35;8.02;;;;;;;2.16;81.35;96340.53;5107312;28;20511;-69
2021/11/05 04:36:56;;;;;;;32.15;8.85;;;;;;;2.15;81.54;96344.31;5108407;28;20048;-68
2021/11/05 04:39:25;;;;;;;20.00;7.05;;;;;;;2.17;81.67;96354.78;5106646;28;20047;-68
2021/11/05 04:41:52;;;;;;;17.42;6.20;;;;;;;2.17;81.93;96352.09;5108008;28;20082;-68
2021/11/05 04:44:19;;;;;;;14.05;6.65;;;;;;;2.15;82.00;96355.03;5106904;28;20066;-68
2021/11/05 04:46:46;;;;;;;22.05;9.18;;;;;;;2.16;82.17;96356.66;5108037;28;20052;-68
2021/11/05 04:49:13;;;;;;;20.27;8.05;;;;;;;2.17;82.09;96363.63;5106999;28;20076;-68
2021/11/05 04:51:39;;;;;;;25.50;8.52;;;;;;;2.14;82.22;96368.72;5107285;28;20047;-69
2021/11/05 04:54:06;;;;;;;33.40;11.07;;;;;;;2.12;82.05;96371.69;5096766;28;20044;-68
2021/11/05 04:56:35;;;;;;;25.48;8.95;;;;;;;2.09;82.12;96372.22;5087119;28;20139;-68
2021/11/05 04:59:01;;;;;;;32.00;10.10;;;;;;;2.09;82.24;96369.53;5087360;28;20047;-69
2021/11/05 05:01:28;;;;;;;35.88;12.25;;;;;;;2.07;82.03;96375.16;5087288;28;20055;-68
2021/11/05 05:03:55;;;;;;;45.22;14.82;;;;;;;2.07;82.19;96374.34;5087322;28;20403;-68
2021/11/05 05:06:21;;;;;;;39.58;13.52;;;;;;;2.07;82.25;96374.34;5085743;28;20052;-69
2021/11/05 05:08:48;;;;;;;36.42;10.38;;;;;;;2.07;82.50;96380.53;5087511;28;20039;-68
2021/11/05 05:11:14;;;;;;;22.05;8.55;;;;;;;2.08;82.52;96381.34;5086270;28;20048;-69
2021/11/05 05:13:42;;;;;;;21.35;7.28;;;;;;;2.08;82.59;96386.69;5086547;28;20052;-68
2021/11/05 05:16:09;;;;;;;19.48;7.25;;;;;;;2.12;82.78;96385.13;5086699;28;20059;-68
2021/11/05 05:18:35;;;;;;;21.75;7.05;;;;;;;2.18;82.87;96376.00;5086623;28;20052;-69
2021/11/05 05:21:02;;;;;;;16.55;6.57;;;;;;;2.25;82.93;96394.56;5087008;28;20052;-69
2021/11/05 05:23:28;;;;;;;29.13;7.88;;;;;;;2.29;83.16;96393.75;5086782;28;20130;-68
2021/11/05 05:25:55;;;;;;;12.50;5.50;;;;;;;2.36;83.09;96398.91;5107840;28;20052;-68
2021/11/05 05:28:21;;;;;;;19.15;5.80;;;;;;;2.41;83.14;96398.13;5108764;28;20058;-68
2021/11/05 05:30:49;;;;;;;17.40;6.47;;;;;;;2.47;82.90;96405.13;5111570;28;20396;-68
2021/11/05 05:33:16;;;;;;;13.95;5.68;;;;;;;2.51;83.00;96406.22;5110353;28;20055;-69
2021/11/05 05:35:42;;;;;;;19.23;5.95;;;;;;;2.57;82.65;96399.75;5111313;27;20058;-68
2021/11/05 05:38:09;;;;;;;22.00;6.35;;;;;;;2.60;82.69;96404.59;5110823;27;20047;-69
2021/11/05 05:40:35;;;;;;;22.80;6.72;;;;;;;2.63;82.92;96411.34;5110843;28;20047;-70
2021/11/05 05:43:02;;;;;;;14.93;5.88;;;;;;;2.65;82.35;96417.25;5110607;28;20051;-69
2021/11/05 05:45:28;;;;;;;10.85;4.93;;;;;;;2.62;82.30;96413.22;5110531;27;20055;-68
2021/11/05 05:47:56;;;;;;;12.20;5.88;;;;;;;2.61;81.91;96422.38;5111447;28;20515;-69
2021/11/05 05:50:23;;;;;;;16.30;5.43;;;;;;;2.57;81.71;96426.66;5110045;28;20082;-68
2021/11/05 05:52:49;;;;;;;14.07;5.05;;;;;;;2.56;82.04;96433.09;5111015;28;20104;-68
2021/11/05 05:55:16;;;;;;;12.98;5.35;;;;;;;2.57;81.96;96432.03;5108215;27;20052;-69
2021/11/05 05:57:43;;;;;;;20.73;5.80;;;;;;;2.57;81.99;96437.41;5111283;28;20570;-68
2021/11/05 06:00:12;;;;;;;12.43;4.70;;;;;;;2.59;81.66;96446.00;5110488;28;20047;-69
2021/11/05 06:02:39;;;;;;;17.50;5.80;;;;;;;2.60;81.90;96443.03;5110528;28;20063;-69
2021/11/05 06:05:08;;;;;;;14.23;5.00;;;;;;;2.63;81.45;96447.09;5110521;28;20055;-69
2021/11/05 06:07:34;;;;;;;16.23;5.10;;;;;;;2.62;81.42;96445.47;5110357;28;20094;-68
2021/11/05 06:10:01;;;;;;;13.40;4.70;;;;;;;2.65;81.66;96465.63;5111038;28;20047;-69
2021/11/05 06:12:28;;;;;;;12.73;5.13;;;;;;;2.72;81.58;96460.84;5096519;28;20077;-69
2021/11/05 06:14:54;;;;;;;14.43;4.70;;;;;;;2.76;81.31;96467.28;5090239;28;20044;-69
2021/11/05 06:17:21;;;;;;;16.05;4.90;;;;;;;2.75;81.21;96461.09;5089140;28;20048;-72
2021/11/05 06:19:47;;;;;;;13.00;4.22;;;;;;;2.79;81.12;96466.75;5090229;28;20692;-72
2021/11/05 06:22:15;;;;;;;9.45;4.20;;;;;;;2.79;80.86;96467.56;5088367;28;20513;-72
2021/11/05 06:24:41;;;;;;;14.30;4.88;;;;;;;2.83;80.87;96474.03;5089957;28;20044;-72
2021/11/05 06:27:08;;;;;;;10.07;4.13;;;;;;;2.86;80.88;96483.44;5089747;28;20044;-71
2021/11/05 06:29:34;;;;;;;11.85;4.55;;;;;;;2.96;80.68;96477.28;5089855;28;20097;-72
2021/11/05 06:32:01;;;;;;;10.25;4.07;;;;;;;3.02;80.09;96486.97;5090019;28;20056;-72
2021/11/05 06:34:27;;;;;;;9.65;3.72;;;;;;;3.03;80.12;96489.41;5088939;28;20765;-72
2021/11/05 06:36:54;;;;;;;10.98;3.78;;;;;;;3.06;80.62;96501.50;5090413;28;20048;-72
2021/11/05 06:39:22;;;;;;;10.50;4.07;;;;;;;3.08;80.57;96502.03;5089056;28;20052;-72
2021/11/05 06:41:48;;;;;;;9.93;4.85;;;;;;;3.09;80.57;96507.19;5089720;28;20108;-72
2021/11/05 06:44:15;;;;;;;9.13;3.58;;;;;;;3.11;80.66;96513.09;5088342;28;20056;-72
2021/11/05 06:46:41;;;;;;;13.60;4.95;;;;;;;3.13;80.81;96515.50;5089642;28;20396;-72
2021/11/05 06:49:08;;;;;;;8.73;3.90;;;;;;;3.16;80.65;96517.66;5089195;28;20044;-72
2021/11/05 06:51:34;;;;;;;12.55;3.97;;;;;;;3.14;80.09;96522.53;5089441;28;20431;-73
2021/11/05 06:54:02;;;;;;;33.67;7.60;;;;;;;3.07;78.99;96527.34;5091073;28;20718;-73
2021/11/05 06:56:30;;;;;;;17.80;5.18;;;;;;;3.07;79.05;96538.09;5085933;28;20127;-73
2021/11/05 06:58:58;;;;;;;12.70;3.65;;;;;;;3.03;79.06;96537.03;5088003;28;20040;-72
2021/11/05 07:01:25;;;;;;;10.98;3.92;;;;;;;3.02;79.34;96541.56;5087191;28;20059;-72
2021/11/05 07:03:51;;;;;;;26.35;5.80;;;;;;;3.06;79.88;96547.25;5088487;28;20056;-72
2021/11/05 07:06:18;;;;;;;8.75;3.25;;;;;;;3.08;80.03;96545.91;5087361;28;20060;-72
2021/11/05 07:08:44;;;;;;;35.97;7.60;;;;;;;3.14;79.61;96546.75;5084325;28;20580;-73
2021/11/05 07:11:11;;;;;;;14.90;3.80;;;;;;;3.19;79.60;96548.63;5085201;28;20051;-72
2021/11/05 07:13:39;;;;;;;16.15;4.50;;;;;;;3.23;79.85;96552.38;5088309;28;20052;-72
2021/11/05 07:16:06;;;;;;;13.05;4.47;;;;;;;3.27;78.88;96562.34;5087171;28;20044;-71
2021/11/05 07:18:32;;;;;;;23.67;5.75;;;;;;;3.32;78.94;96562.38;5087917;28;20048;-72
2021/11/05 07:21:03;;;;;;;10.43;3.33;;;;;;;3.38;79.19;96568.56;5087707;28;20079;-72
2021/11/05 07:23:31;;;;;;;16.35;4.20;;;;;;;3.45;79.55;96565.63;5086996;28;20411;-73
2021/11/05 07:25:58;;;;;;;13.20;3.83;;;;;;;3.53;79.04;96570.47;5088903;28;20051;-73
2021/11/05 07:28:24;;;;;;;11.30;3.92;;;;;;;3.60;79.00;96574.53;5087050;28;20709;-73
2021/11/05 07:30:52;;;;;;;15.95;4.95;;;;;;;3.69;79.10;96580.19;5086906;28;20522;-72
2021/11/05 07:33:19;;;;;;;13.02;3.55;;;;;;;3.76;78.69;96588.84;5086642;28;20044;-72
2021/11/05 07:35:45;;;;;;;10.85;3.53;;;;;;;3.88;78.71;96597.44;5088261;28;20137;-73
2021/11/05 07:38:12;;;;;;;9.68;3.35;;;;;;;3.93;77.77;96602.84;5087570;28;20056;-72
2021/11/05 07:40:38;;;;;;;11.93;3.70;;;;;;;4.06;77.37;96609.56;5088171;28;20040;-73
2021/11/05 07:43:05;;;;;;;8.32;2.97;;;;;;;4.17;76.20;96615.75;5087418;28;20051;-73
2021/11/05 07:45:31;;;;;;;6.75;3.08;;;;;;;4.23;76.12;96609.31;5086922;28;20052;-72
2021/11/05 07:47:59;;;;;;;11.25;3.47;;;;;;;4.30;76.24;96620.59;5088236;28;20059;-73
2021/11/05 07:50:33;;;;;;;8.43;3.58;;;;;;;4.45;76.14;96627.88;5086407;28;20048;-72
2021/11/05 07:52:59;;;;;;;9.30;3.63;;;;;;;4.60;75.51;96629.75;5087751;28;20208;-72
2021/11/05 07:55:26;;;;;;;12.77;3.92;;;;;;;4.75;75.13;96631.56;5106717;28;20047;-72
2021/11/05 07:57:52;;;;;;;14.40;3.65;;;;;;;4.88;74.20;96631.81;5108343;28;20120;-72
2021/11/05 08:00:18;;;;;;;10.70;3.80;;;;;;;5.07;74.19;96639.31;5107612;28;20043;-72
2021/11/05 08:02:45;;;;;;;7.50;3.42;;;;;;;5.23;73.83;96633.59;5107847;28;20052;-73
2021/11/05 08:05:13;;;;;;;15.10;4.75;;;;;;;5.49;73.71;96631.56;5107750;28;20058;-72
2021/11/05 08:07:40;;;;;;;16.02;4.85;;;;;;;5.71;72.53;96646.56;5107240;28;20059;-72
2021/11/05 08:10:09;;;;;;;8.65;3.95;;;;;;;5.75;71.58;96653.84;5107957;28;20531;-72
2021/11/05 08:12:36;;;;;;;10.30;4.15;;;;;;;5.80;72.48;96658.41;5106406;28;20055;-74
2021/11/05 08:15:02;;;;;;;14.10;4.20;;;;;;;5.85;71.16;96665.69;5107914;28;20048;-72
2021/11/05 08:17:29;;;;;;;9.65;4.25;;;;;;;5.93;71.30;96670.50;5106743;28;20764;-73
2021/11/05 08:19:55;;;;;;;9.80;3.65;;;;;;;6.19;70.29;96669.25;5108195;28;20059;-73
2021/11/05 08:22:24;;;;;;;12.75;4.10;;;;;;;6.62;69.87;96687.56;5106755;28;20054;-73
2021/11/05 08:24:52;;;;;;;6.53;3.25;;;;;;;6.93;68.29;96686.19;5091206;28;20554;-73
2021/11/05 08:27:18;;;;;;;9.90;3.63;;;;;;;7.04;66.68;96687.69;5086741;28;20085;-73
2021/11/05 08:29:45;;;;;;;14.30;4.50;;;;;;;7.13;66.14;96695.19;5087107;28;20658;-73
2021/11/05 08:32:12;;;;;;;8.73;4.00;;;;;;;7.18;66.04;96703.25;5087021;28;20044;-72
2021/11/05 08:34:39;;;;;;;11.85;4.47;;;;;;;7.13;65.67;96700.59;5086774;28;20055;-73
2021/11/05 08:37:06;;;;;;;7.97;3.85;;;;;;;7.08;65.67;96698.75;5087341;28;20094;-72
2021/11/05 08:39:34;;;;;;;8.02;3.83;;;;;;;7.12;66.47;96709.84;5087091;28;20047;-72
2021/11/05 08:42:01;;;;;;;13.77;4.80;;;;;;;7.16;65.54;96719.00;5087415;28;20380;-73
2021/11/05 08:44:30;;;;;;;13.70;4.43;;;;;;;7.15;66.87;96720.91;5084881;28;20047;-75
2021/11/05 08:46:56;;;;;;;11.73;4.30;;;;;;;6.95;67.78;96732.75;5087215;28;20058;-74
2021/11/05 08:49:24;;;;;;;7.93;3.78;;;;;;;6.84;68.20;96731.22;5086907;28;20056;-73
2021/11/05 08:51:52;;;;;;;10.05;4.75;;;;;;;6.63;68.30;96724.34;5086698;28;20047;-73
2021/11/05 08:54:18;;;;;;;11.65;4.50;;;;;;;6.54;69.31;96733.09;5096851;28;20048;-74
2021/11/05 08:56:46;;;;;;;12.85;5.00;;;;;;;6.55;69.80;96731.19;5107079;27;20051;-73
2021/11/05 08:59:15;;;;;;;13.50;4.55;;;;;;;6.58;69.55;96743.31;5107156;28;20051;-72
2021/11/05 09:01:41;;;;;;;7.05;4.63;;;;;;;6.62;71.34;96738.97;5106692;28;20522;-73
2021/11/05 09:04:08;;;;;;;14.48;5.75;;;;;;;6.71;70.56;96737.28;5106190;28;20063;-73
2021/11/05 09:06:35;;;;;;;15.52;5.18;;;;;;;6.77;70.55;96741.56;5106904;28;20056;-73
2021/11/05 09:09:01;;;;;;;10.52;4.47;;;;;;;6.80;70.30;96746.41;5107000;28;20078;-71
2021/11/05 09:11:29;;;;;;;10.18;4.57;;;;;;;6.85;69.91;96749.06;5107080;28;20048;-73
2021/11/05 09:13:57;;;;;;;17.00;5.25;;;;;;;6.97;69.82;96754.91;5106311;28;20502;-73
2021/11/05 09:16:27;;;;;;;7.85;4.30;;;;;;;6.96;68.94;96756.00;5107250;28;20494;-73
2021/11/05 09:18:54;;;;;;;8.75;4.32;;;;;;;6.91;69.11;96769.59;5106639;28;20047;-73
2021/11/05 09:21:21;;;;;;;13.77;4.75;;;;;;;6.95;69.11;96767.94;5107180;28;20051;-73
2021/11/05 09:23:47;;;;;;;13.20;5.00;;;;;;;6.98;69.92;96764.66;5098978;28;20051;-73
2021/11/05 09:26:15;;;;;;;7.53;4.55;;;;;;;6.96;69.15;96766.84;5087139;28;20060;-73
2021/11/05 09:28:41;;;;;;;12.52;5.10;;;;;;;6.88;69.65;96764.75;5087034;28;20140;-73
2021/11/05 09:31:09;;;;;;;10.40;4.90;;;;;;;6.95;69.87;96773.34;5086562;28;20056;-74
2021/11/05 09:33:36;;;;;;;10.30;4.30;;;;;;;7.06;69.69;96776.78;5086408;28;20048;-73
2021/11/05 09:36:03;;;;;;;10.93;5.55;;;;;;;7.19;69.24;96775.28;5086489;28;20044;-72
2021/11/05 09:38:29;;;;;;;9.43;4.88;;;;;;;7.39;69.65;96769.66;5086493;28;20135;-73
2021/11/05 09:40:56;;;;;;;11.05;4.93;;;;;;;7.57;69.04;96773.56;5086795;28;20074;-78
2021/11/05 09:43:22;;;;;;;6.97;4.32;;;;;;;7.59;68.00;96776.78;5086380;28;20048;-72
2021/11/05 09:45:49;;;;;;;11.30;5.53;;;;;;;7.54;68.26;96774.94;5086336;28;20055;-73
2021/11/05 09:48:21;;;;;;;14.13;5.45;;;;;;;7.46;68.22;96782.88;5086647;28;20056;-72
2021/11/05 09:50:47;;;;;;;9.77;5.03;;;;;;;7.42;69.31;96785.38;5086015;28;20051;-72
2021/11/05 09:53:14;;;;;;;9.95;4.85;;;;;;;7.47;68.83;96781.81;5087390;28;20415;-72
2021/11/05 09:55:44;;;;;;;15.35;5.53;;;;;;;7.46;68.73;96780.97;5106869;28;20134;-73
2021/11/05 09:58:11;;;;;;;15.80;5.55;;;;;;;7.52;68.18;96779.84;5106473;28;20048;-72
2021/11/05 10:00:38;;;;;;;10.10;5.00;;;;;;;7.65;67.98;96782.94;5106865;28;20085;-72
2021/11/05 10:03:05;;;;;;;15.00;5.38;;;;;;;7.75;67.07;96789.06;5105881;28;20100;-73
2021/11/05 10:05:35;;;;;;;6.93;3.83;;;;;;;7.82;67.02;96788.69;5105660;28;20052;-72
2021/11/05 10:08:02;;;;;;;13.50;5.45;;;;;;;7.90;66.49;96790.78;5105953;28;20048;-72
2021/11/05 10:10:31;;;;;;;12.73;5.13;;;;;;;7.96;67.53;96794.25;5107304;28;20055;-73
2021/11/05 10:13:02;;;;;;;9.20;4.50;;;;;;;8.01;66.49;96786.84;5106191;28;20047;-73
2021/11/05 10:15:37;;;;;;;7.07;4.15;;;;;;;7.95;65.96;96792.63;5110740;28;20543;-72
2021/11/05 10:18:12;;;;;;;11.85;4.68;;;;;;;7.87;67.17;96791.34;5109755;28;20058;-72
2021/11/05 10:20:41;;;;;;;7.22;4.38;;;;;;;7.80;66.94;96785.47;5110344;27;20589;-72
2021/11/05 10:23:08;;;;;;;13.63;5.55;;;;;;;7.76;67.78;96787.97;5108002;28;20413;-72
2021/11/05 10:25:37;;;;;;;12.10;5.25;;;;;;;7.82;67.87;96791.41;5090158;28;20139;-72
2021/11/05 10:28:07;;;;;;;10.38;5.00;;;;;;;7.85;67.65;96791.66;5090303;28;20418;-73
2021/11/05 10:30:36;;;;;;;11.73;5.93;;;;;;;7.83;67.11;96787.63;5088907;28;20063;-73
2021/11/05 10:33:04;;;;;;;10.68;4.95;;;;;;;7.75;67.53;96783.63;5089936;28;20403;-72
2021/11/05 10:35:31;;;;;;;12.70;4.82;;;;;;;7.77;68.77;96786.06;5089165;28;20411;-73
2021/11/05 10:38:04;;;;;;;10.55;4.95;;;;;;;7.82;69.52;96784.09;5090069;28;20458;-73
2021/11/05 10:40:33;;;;;;;7.22;4.25;;;;;;;7.81;68.71;96787.09;5089440;28;20638;-73
2021/11/05 10:43:00;;;;;;;10.57;4.93;;;;;;;7.78;68.99;96787.69;5089742;28;20055;-73
2021/11/05 10:45:27;;;;;;;8.20;4.93;;;;;;;7.74;68.61;96792.06;5089648;28;20052;-71
2021/11/05 10:48:06;;;;;;;12.10;5.40;;;;;;;7.63;69.41;96796.00;5088689;28;20052;-72
2021/11/05 10:50:36;;;;;;;10.05;4.90;;;;;;;7.64;69.48;96790.28;5089782;28;20048;-73
2021/11/05 10:53:07;;;;;;;10.93;4.97;;;;;;;7.65;68.76;96799.22;5088418;28;20048;-73
2021/11/05 10:55:42;;;;;;;12.27;5.80;;;;;;;7.66;69.06;96795.41;5069742;28;20059;-73
2021/11/05 10:58:09;;;;;;;8.15;4.20;;;;;;;7.69;68.31;96794.84;5068432;28;20060;-72
2021/11/05 11:00:37;;;;;;;7.28;4.35;;;;;;;7.78;68.96;96795.81;5068674;28;20060;-72
2021/11/05 11:03:14;;;;;;;8.75;4.50;;;;;;;7.85;68.90;96793.56;5068558;28;20055;-72
2021/11/05 11:05:43;;;;;;;8.55;4.35;;;;;;;7.93;68.21;96798.31;5068326;28;20084;-72
2021/11/05 11:08:18;;;;;;;10.73;4.55;;;;;;;8.00;67.71;96801.50;5069402;28;20052;-72
2021/11/05 11:10:45;;;;;;;6.22;3.60;;;;;;;8.02;66.38;96790.38;5067591;28;20052;-73
2021/11/05 11:13:27;;;;;;;7.15;3.92;;;;;;;8.06;67.75;96799.53;5068677;28;20059;-72
2021/11/05 11:15:54;;;;;;;7.53;4.00;;;;;;;8.06;68.03;96800.34;5068910;28;20048;-72
2021/11/05 11:18:21;;;;;;;14.15;5.43;;;;;;;7.99;66.92;96799.91;5067902;28;20055;-73
2021/11/05 11:20:49;;;;;;;8.57;4.20;;;;;;;8.00;68.04;96798.78;5068613;28;20049;-72
2021/11/05 11:23:17;;;;;;;13.38;5.40;;;;;;;8.01;68.39;96802.31;5071829;28;20051;-72
2021/11/05 11:25:44;;;;;;;7.00;4.43;;;;;;;8.03;68.33;96800.09;5109663;28;20047;-72
2021/11/05 11:28:11;;;;;;;6.80;4.22;;;;;;;8.08;68.72;96803.56;5109360;27;20043;-73
2021/11/05 11:30:38;;;;;;;14.18;4.55;;;;;;;8.11;69.29;96800.28;5109398;28;20051;-72
2021/11/05 11:33:05;;;;;;;9.15;4.05;;;;;;;8.16;67.84;96798.59;5107940;28;20051;-72
2021/11/05 11:35:31;;;;;;;6.00;3.55;;;;;;;8.17;67.13;96797.50;5109465;28;20051;-73